RPB7212 SKCG-SKSP
Flight info
| Callsign | RPB7212 |
|---|---|
| Flight time | 1h 4m |
| Altitude | 36000 |
| Route | KOPGI2A KOPGI G445 DAGAS DCT PUMRI PUMRI2A |
| Aircraft | B738/M-SDE2E3FGHIRWXY/LB1 |
Departure
| Time | 2026-05-08 17:31 |
|---|---|
| Airport | Rafael Nuñez International Airport (SKCG) |
Arrival
| Time | 2026-05-08 18:36 |
|---|---|
| Airport | Gustavo Rojas Pinilla International Airport (SKSP) |
| Time | Latitude | Longitude | Altitude | Speed | Heading |
|---|---|---|---|---|---|
| 2026-05-08 17:13 | 10.44578 | -75.51556 | 15 ft | 0 kts | 271° |
| 2026-05-08 17:19 | 10.44569 | -75.51547 | 17 ft | 0 kts | 272° |
| 2026-05-08 17:22 | 10.44569 | -75.51534 | 17 ft | 4 kts | 272° |
| 2026-05-08 17:22 | 10.44567 | -75.51507 | 15 ft | 4 kts | 272° |
| 2026-05-08 17:22 | 10.44566 | -75.51484 | 15 ft | 4 kts | 268° |
| 2026-05-08 17:22 | 10.44574 | -75.51464 | 17 ft | 4 kts | 204° |
| 2026-05-08 17:23 | 10.44600 | -75.51458 | 17 ft | 4 kts | 183° |
| 2026-05-08 17:23 | 10.44581 | -75.51455 | 17 ft | 4 kts | 164° |
| 2026-05-08 17:23 | 10.44560 | -75.51440 | 15 ft | 4 kts | 133° |
| 2026-05-08 17:23 | 10.44554 | -75.51416 | 15 ft | 3 kts | 92° |
| 2026-05-08 17:24 | 10.44553 | -75.51390 | 15 ft | 4 kts | 92° |
| 2026-05-08 17:24 | 10.44552 | -75.51373 | 15 ft | 0 kts | 93° |
| 2026-05-08 17:27 | 10.44550 | -75.51354 | 15 ft | 7 kts | 96° |
| 2026-05-08 17:28 | 10.44526 | -75.51289 | 15 ft | 13 kts | 140° |
| 2026-05-08 17:28 | 10.44416 | -75.51284 | 15 ft | 19 kts | 182° |
| 2026-05-08 17:28 | 10.44318 | -75.51288 | 14 ft | 24 kts | 182° |
| 2026-05-08 17:28 | 10.44132 | -75.51296 | 12 ft | 29 kts | 182° |
| 2026-05-08 17:29 | 10.43913 | -75.51305 | 14 ft | 33 kts | 182° |
| 2026-05-08 17:29 | 10.43667 | -75.51315 | 13 ft | 37 kts | 182° |
| 2026-05-08 17:29 | 10.43414 | -75.51326 | 17 ft | 35 kts | 182° |
| 2026-05-08 17:29 | 10.43206 | -75.51333 | 17 ft | 25 kts | 178° |
| 2026-05-08 17:30 | 10.43115 | -75.51331 | 18 ft | 5 kts | 237° |
| 2026-05-08 17:30 | 10.43135 | -75.51338 | 17 ft | 4 kts | 11° |
| 2026-05-08 17:30 | 10.43145 | -75.51337 | 18 ft | 0 kts | 2° |
| 2026-05-08 17:30 | 10.43147 | -75.51337 | 18 ft | 2 kts | 2° |
| 2026-05-08 17:31 | 10.43290 | -75.51330 | 17 ft | 53 kts | 2° |
| 2026-05-08 17:31 | 10.43905 | -75.51305 | 14 ft | 122 kts | 2° |
| 2026-05-08 17:31 | 10.44944 | -75.51260 | 104 ft | 169 kts | 360° |
| 2026-05-08 17:31 | 10.46129 | -75.51205 | 838 ft | 168 kts | 359° |
| 2026-05-08 17:32 | 10.47318 | -75.51391 | 1431 ft | 180 kts | 337° |
| 2026-05-08 17:32 | 10.48374 | -75.52101 | 1972 ft | 194 kts | 309° |
| 2026-05-08 17:32 | 10.48889 | -75.53427 | 2312 ft | 212 kts | 276° |
| 2026-05-08 17:32 | 10.48981 | -75.54991 | 2536 ft | 233 kts | 266° |
| 2026-05-08 17:33 | 10.48707 | -75.56675 | 2779 ft | 252 kts | 253° |
| 2026-05-08 17:33 | 10.48140 | -75.58439 | 3145 ft | 270 kts | 250° |
| 2026-05-08 17:33 | 10.47913 | -75.60353 | 3814 ft | 278 kts | 274° |
| 2026-05-08 17:33 | 10.48129 | -75.62306 | 4624 ft | 280 kts | 276° |
| 2026-05-08 17:34 | 10.48364 | -75.64283 | 5339 ft | 283 kts | 276° |
| 2026-05-08 17:34 | 10.48591 | -75.66281 | 6073 ft | 286 kts | 276° |
| 2026-05-08 17:34 | 10.48807 | -75.68298 | 6769 ft | 289 kts | 276° |
| 2026-05-08 17:34 | 10.49013 | -75.70320 | 7404 ft | 293 kts | 276° |
| 2026-05-08 17:35 | 10.49216 | -75.72389 | 8110 ft | 295 kts | 275° |
| 2026-05-08 17:35 | 10.49415 | -75.74481 | 8765 ft | 300 kts | 275° |
| 2026-05-08 17:35 | 10.49613 | -75.76601 | 9442 ft | 303 kts | 275° |
| 2026-05-08 17:35 | 10.49810 | -75.78747 | 10081 ft | 307 kts | 276° |
| 2026-05-08 17:36 | 10.50014 | -75.80979 | 10282 ft | 328 kts | 276° |
| 2026-05-08 17:36 | 10.50231 | -75.83362 | 10437 ft | 349 kts | 276° |
| 2026-05-08 17:36 | 10.50458 | -75.85877 | 10687 ft | 364 kts | 276° |
| 2026-05-08 17:36 | 10.50691 | -75.88461 | 11162 ft | 370 kts | 276° |
| 2026-05-08 17:37 | 10.50925 | -75.91081 | 11729 ft | 374 kts | 276° |
| 2026-05-08 17:37 | 10.51162 | -75.93730 | 12322 ft | 378 kts | 276° |
| 2026-05-08 17:37 | 10.51401 | -75.96401 | 12890 ft | 382 kts | 277° |
| 2026-05-08 17:37 | 10.51643 | -75.99109 | 13456 ft | 387 kts | 277° |
| 2026-05-08 17:38 | 10.51885 | -76.01819 | 13993 ft | 392 kts | 277° |
| 2026-05-08 17:38 | 10.52131 | -76.04581 | 14596 ft | 393 kts | 277° |
| 2026-05-08 17:38 | 10.52377 | -76.07351 | 15252 ft | 394 kts | 277° |
| 2026-05-08 17:38 | 10.52624 | -76.10129 | 15884 ft | 395 kts | 276° |
| 2026-05-08 17:39 | 10.52871 | -76.12916 | 16486 ft | 397 kts | 276° |
| 2026-05-08 17:39 | 10.53120 | -76.15722 | 17083 ft | 399 kts | 276° |
| 2026-05-08 17:39 | 10.53369 | -76.18535 | 17668 ft | 401 kts | 276° |
| 2026-05-08 17:39 | 10.53621 | -76.21372 | 18229 ft | 403 kts | 276° |
| 2026-05-08 17:40 | 10.53873 | -76.24219 | 18682 ft | 407 kts | 276° |
| 2026-05-08 17:40 | 10.54127 | -76.27096 | 19091 ft | 411 kts | 276° |
| 2026-05-08 17:40 | 10.54384 | -76.30003 | 19498 ft | 415 kts | 276° |
| 2026-05-08 17:40 | 10.54643 | -76.32939 | 19909 ft | 419 kts | 276° |
| 2026-05-08 17:41 | 10.54946 | -76.35854 | 20312 ft | 422 kts | 281° |
| 2026-05-08 17:41 | 10.55649 | -76.38749 | 20709 ft | 424 kts | 291° |
| 2026-05-08 17:41 | 10.56761 | -76.41536 | 21119 ft | 426 kts | 295° |
| 2026-05-08 17:41 | 10.57942 | -76.44310 | 21510 ft | 429 kts | 295° |
| 2026-05-08 17:42 | 10.59143 | -76.47101 | 21881 ft | 433 kts | 295° |
| 2026-05-08 17:42 | 10.60353 | -76.49925 | 22255 ft | 437 kts | 295° |
| 2026-05-08 17:42 | 10.61563 | -76.52774 | 22621 ft | 440 kts | 295° |
| 2026-05-08 17:42 | 10.62773 | -76.55649 | 22976 ft | 444 kts | 295° |
| 2026-05-08 17:43 | 10.63989 | -76.58554 | 23327 ft | 447 kts | 295° |
| 2026-05-08 17:43 | 10.65191 | -76.61438 | 23645 ft | 450 kts | 295° |
| 2026-05-08 17:43 | 10.66411 | -76.64372 | 23998 ft | 451 kts | 295° |
| 2026-05-08 17:43 | 10.67632 | -76.67311 | 24378 ft | 451 kts | 294° |
| 2026-05-08 17:44 | 10.68853 | -76.70251 | 24750 ft | 452 kts | 294° |
| 2026-05-08 17:44 | 10.70075 | -76.73194 | 25094 ft | 453 kts | 294° |
| 2026-05-08 17:44 | 10.71306 | -76.76156 | 25427 ft | 454 kts | 294° |
| 2026-05-08 17:44 | 10.72539 | -76.79125 | 25757 ft | 456 kts | 294° |
| 2026-05-08 17:45 | 10.73771 | -76.82092 | 26083 ft | 457 kts | 294° |
| 2026-05-08 17:45 | 10.75008 | -76.85071 | 26401 ft | 458 kts | 294° |
| 2026-05-08 17:45 | 10.76250 | -76.88064 | 26733 ft | 459 kts | 294° |
| 2026-05-08 17:45 | 10.77492 | -76.91056 | 27059 ft | 460 kts | 294° |
| 2026-05-08 17:46 | 10.78736 | -76.94057 | 27369 ft | 461 kts | 294° |
| 2026-05-08 17:46 | 10.79989 | -76.97079 | 27598 ft | 465 kts | 294° |
| 2026-05-08 17:46 | 10.81231 | -77.00073 | 27840 ft | 467 kts | 294° |
| 2026-05-08 17:46 | 10.82495 | -77.03123 | 28157 ft | 467 kts | 294° |
| 2026-05-08 17:47 | 10.83755 | -77.06167 | 28534 ft | 467 kts | 294° |
| 2026-05-08 17:47 | 10.85015 | -77.09211 | 28829 ft | 468 kts | 295° |
| 2026-05-08 17:47 | 10.86283 | -77.12272 | 29001 ft | 472 kts | 295° |
| 2026-05-08 17:47 | 10.87146 | -77.14357 | 29159 ft | 473 kts | 295° |
| 2026-05-08 17:48 | 10.88835 | -77.18441 | 29609 ft | 472 kts | 294° |
| 2026-05-08 17:48 | 10.90107 | -77.21517 | 29926 ft | 472 kts | 294° |
| 2026-05-08 17:48 | 10.91382 | -77.24601 | 30169 ft | 473 kts | 294° |
| 2026-05-08 17:48 | 10.92659 | -77.27691 | 30369 ft | 474 kts | 294° |
| 2026-05-08 17:49 | 10.93939 | -77.30791 | 30587 ft | 475 kts | 294° |
| 2026-05-08 17:49 | 10.95217 | -77.33884 | 30907 ft | 473 kts | 294° |
| 2026-05-08 17:49 | 10.96486 | -77.36959 | 31304 ft | 470 kts | 294° |
| 2026-05-08 17:49 | 10.97749 | -77.40020 | 31680 ft | 468 kts | 294° |
| 2026-05-08 17:50 | 10.98999 | -77.43074 | 31956 ft | 467 kts | 292° |
| 2026-05-08 17:50 | 11.00200 | -77.46146 | 32229 ft | 467 kts | 292° |
| 2026-05-08 17:50 | 11.01372 | -77.49226 | 32568 ft | 466 kts | 292° |
| 2026-05-08 17:50 | 11.02528 | -77.52297 | 32941 ft | 463 kts | 291° |
| 2026-05-08 17:51 | 11.03679 | -77.55353 | 33281 ft | 462 kts | 291° |
| 2026-05-08 17:51 | 11.04832 | -77.58405 | 33620 ft | 461 kts | 292° |
| 2026-05-08 17:51 | 11.05983 | -77.61444 | 33942 ft | 459 kts | 292° |
| 2026-05-08 17:51 | 11.07136 | -77.64476 | 34196 ft | 459 kts | 292° |
| 2026-05-08 17:52 | 11.08290 | -77.67506 | 34421 ft | 459 kts | 292° |
| 2026-05-08 17:52 | 11.09447 | -77.70540 | 34652 ft | 459 kts | 291° |
| 2026-05-08 17:52 | 11.11737 | -77.76551 | 35219 ft | 457 kts | 291° |
| 2026-05-08 17:53 | 11.12884 | -77.79560 | 35467 ft | 456 kts | 291° |
| 2026-05-08 17:53 | 11.14032 | -77.82576 | 35669 ft | 457 kts | 291° |
| 2026-05-08 17:53 | 11.15181 | -77.85595 | 35894 ft | 457 kts | 291° |
| 2026-05-08 17:54 | 11.17489 | -77.91665 | 35890 ft | 460 kts | 291° |
| 2026-05-08 17:54 | 11.19787 | -77.97713 | 35881 ft | 455 kts | 291° |
| 2026-05-08 17:55 | 11.22063 | -78.03708 | 35893 ft | 453 kts | 291° |
| 2026-05-08 17:55 | 11.24316 | -78.09645 | 35893 ft | 452 kts | 291° |
| 2026-05-08 17:56 | 11.26580 | -78.15615 | 35898 ft | 451 kts | 291° |
| 2026-05-08 17:56 | 11.28842 | -78.21583 | 35896 ft | 452 kts | 291° |
| 2026-05-08 17:57 | 11.31107 | -78.27563 | 35902 ft | 453 kts | 291° |
| 2026-05-08 17:57 | 11.33378 | -78.33564 | 35903 ft | 454 kts | 291° |
| 2026-05-08 17:58 | 11.35651 | -78.39575 | 35896 ft | 455 kts | 291° |
| 2026-05-08 17:58 | 11.37928 | -78.45600 | 35904 ft | 456 kts | 291° |
| 2026-05-08 17:59 | 11.40193 | -78.51600 | 35897 ft | 457 kts | 291° |
| 2026-05-08 17:59 | 11.42478 | -78.57654 | 35898 ft | 458 kts | 291° |
| 2026-05-08 18:00 | 11.44764 | -78.63716 | 35900 ft | 458 kts | 291° |
| 2026-05-08 18:00 | 11.48192 | -78.72813 | 35896 ft | 458 kts | 291° |
| 2026-05-08 18:01 | 11.50475 | -78.78879 | 35901 ft | 458 kts | 291° |
| 2026-05-08 18:01 | 11.52757 | -78.84943 | 35898 ft | 458 kts | 291° |
| 2026-05-08 18:02 | 11.54652 | -78.89986 | 35904 ft | 458 kts | 291° |
| 2026-05-08 18:02 | 11.57313 | -78.97070 | 35903 ft | 457 kts | 291° |
| 2026-05-08 18:03 | 11.59586 | -79.03127 | 35905 ft | 457 kts | 291° |
| 2026-05-08 18:03 | 11.61844 | -79.09145 | 35901 ft | 457 kts | 291° |
| 2026-05-08 18:04 | 11.64205 | -79.15171 | 35898 ft | 457 kts | 295° |
| 2026-05-08 18:04 | 11.67033 | -79.20968 | 35907 ft | 456 kts | 297° |
| 2026-05-08 18:05 | 11.69952 | -79.26722 | 35907 ft | 457 kts | 297° |
| 2026-05-08 18:05 | 11.72835 | -79.32494 | 35907 ft | 457 kts | 297° |
| 2026-05-08 18:06 | 11.75691 | -79.38288 | 35908 ft | 457 kts | 297° |
| 2026-05-08 18:06 | 11.78539 | -79.44098 | 35902 ft | 458 kts | 297° |
| 2026-05-08 18:07 | 11.81385 | -79.49905 | 35906 ft | 458 kts | 297° |
| 2026-05-08 18:07 | 11.84217 | -79.55685 | 35905 ft | 458 kts | 297° |
| 2026-05-08 18:08 | 11.87067 | -79.61507 | 35907 ft | 459 kts | 297° |
| 2026-05-08 18:08 | 11.89933 | -79.67360 | 35286 ft | 470 kts | 297° |
| 2026-05-08 18:09 | 11.91383 | -79.70324 | 34876 ft | 465 kts | 297° |
| 2026-05-08 18:09 | 11.92828 | -79.73279 | 34398 ft | 463 kts | 297° |
| 2026-05-08 18:09 | 11.94262 | -79.76212 | 33944 ft | 460 kts | 298° |
| 2026-05-08 18:09 | 11.95686 | -79.79127 | 33467 ft | 457 kts | 298° |
| 2026-05-08 18:10 | 11.97100 | -79.82023 | 33008 ft | 454 kts | 298° |
| 2026-05-08 18:10 | 11.98502 | -79.84895 | 32570 ft | 450 kts | 298° |
| 2026-05-08 18:10 | 11.99895 | -79.87748 | 32146 ft | 447 kts | 298° |
| 2026-05-08 18:10 | 12.01278 | -79.90580 | 31725 ft | 444 kts | 298° |
| 2026-05-08 18:11 | 12.02651 | -79.93393 | 31304 ft | 441 kts | 298° |
| 2026-05-08 18:11 | 12.03998 | -79.96155 | 30897 ft | 438 kts | 298° |
| 2026-05-08 18:11 | 12.05354 | -79.98936 | 30473 ft | 437 kts | 298° |
| 2026-05-08 18:11 | 12.06706 | -80.01707 | 30062 ft | 434 kts | 298° |
| 2026-05-08 18:12 | 12.08052 | -80.04468 | 29582 ft | 432 kts | 298° |
| 2026-05-08 18:12 | 12.09386 | -80.07205 | 29141 ft | 429 kts | 298° |
| 2026-05-08 18:12 | 12.10710 | -80.09924 | 28700 ft | 425 kts | 298° |
| 2026-05-08 18:12 | 12.12022 | -80.12619 | 28270 ft | 422 kts | 298° |
| 2026-05-08 18:13 | 12.13324 | -80.15295 | 27848 ft | 419 kts | 298° |
| 2026-05-08 18:13 | 12.14618 | -80.17953 | 27431 ft | 416 kts | 298° |
| 2026-05-08 18:13 | 12.15904 | -80.20596 | 27018 ft | 414 kts | 298° |
| 2026-05-08 18:13 | 12.17182 | -80.23225 | 26607 ft | 412 kts | 298° |
| 2026-05-08 18:14 | 12.18455 | -80.25842 | 26176 ft | 410 kts | 298° |
| 2026-05-08 18:14 | 12.19706 | -80.28416 | 25769 ft | 409 kts | 298° |
| 2026-05-08 18:14 | 12.20970 | -80.31018 | 25348 ft | 408 kts | 299° |
| 2026-05-08 18:14 | 12.22232 | -80.33614 | 24926 ft | 407 kts | 299° |
| 2026-05-08 18:15 | 12.23490 | -80.36206 | 24504 ft | 407 kts | 299° |
| 2026-05-08 18:15 | 12.24672 | -80.38832 | 24070 ft | 409 kts | 290° |
| 2026-05-08 18:15 | 12.25184 | -80.41700 | 23648 ft | 410 kts | 278° |
| 2026-05-08 18:15 | 12.25479 | -80.44577 | 23151 ft | 405 kts | 278° |
| 2026-05-08 18:16 | 12.25768 | -80.47437 | 22553 ft | 403 kts | 278° |
| 2026-05-08 18:16 | 12.26063 | -80.50276 | 21993 ft | 399 kts | 278° |
| 2026-05-08 18:16 | 12.26368 | -80.53105 | 21500 ft | 400 kts | 278° |
| 2026-05-08 18:16 | 12.26678 | -80.55927 | 21075 ft | 398 kts | 278° |
| 2026-05-08 18:17 | 12.26993 | -80.58737 | 20673 ft | 396 kts | 278° |
| 2026-05-08 18:17 | 12.27308 | -80.61527 | 20291 ft | 394 kts | 278° |
| 2026-05-08 18:17 | 12.27624 | -80.64305 | 19910 ft | 391 kts | 278° |
| 2026-05-08 18:17 | 12.27937 | -80.67060 | 19531 ft | 389 kts | 278° |
| 2026-05-08 18:18 | 12.28244 | -80.69766 | 19166 ft | 387 kts | 278° |
| 2026-05-08 18:18 | 12.28554 | -80.72492 | 18793 ft | 385 kts | 278° |
| 2026-05-08 18:18 | 12.28861 | -80.75203 | 18414 ft | 383 kts | 278° |
| 2026-05-08 18:18 | 12.29167 | -80.77900 | 17998 ft | 381 kts | 278° |
| 2026-05-08 18:19 | 12.29468 | -80.80561 | 17585 ft | 372 kts | 278° |
| 2026-05-08 18:19 | 12.29762 | -80.83164 | 17192 ft | 364 kts | 278° |
| 2026-05-08 18:19 | 12.29954 | -80.84864 | 16945 ft | 363 kts | 278° |
| 2026-05-08 18:19 | 12.30340 | -80.88281 | 16456 ft | 360 kts | 278° |
| 2026-05-08 18:20 | 12.30626 | -80.90819 | 16090 ft | 358 kts | 278° |
| 2026-05-08 18:20 | 12.30816 | -80.92496 | 15849 ft | 357 kts | 278° |
| 2026-05-08 18:20 | 12.31099 | -80.95011 | 15494 ft | 356 kts | 278° |
| 2026-05-08 18:20 | 12.31382 | -80.97522 | 15148 ft | 354 kts | 278° |
| 2026-05-08 18:21 | 12.31663 | -81.00015 | 14801 ft | 352 kts | 277° |
| 2026-05-08 18:21 | 12.31941 | -81.02496 | 14454 ft | 351 kts | 277° |
| 2026-05-08 18:21 | 12.32219 | -81.04972 | 14089 ft | 350 kts | 277° |
| 2026-05-08 18:21 | 12.32496 | -81.07440 | 13726 ft | 349 kts | 278° |
| 2026-05-08 18:22 | 12.32773 | -81.09907 | 13337 ft | 348 kts | 277° |
| 2026-05-08 18:22 | 12.33044 | -81.12328 | 12973 ft | 346 kts | 277° |
| 2026-05-08 18:22 | 12.33317 | -81.14767 | 12615 ft | 344 kts | 277° |
| 2026-05-08 18:22 | 12.33589 | -81.17199 | 12259 ft | 343 kts | 277° |
| 2026-05-08 18:23 | 12.33859 | -81.19614 | 11916 ft | 341 kts | 277° |
| 2026-05-08 18:23 | 12.34127 | -81.22014 | 11568 ft | 339 kts | 277° |
| 2026-05-08 18:23 | 12.34394 | -81.24408 | 11213 ft | 338 kts | 277° |
| 2026-05-08 18:23 | 12.34659 | -81.26785 | 10882 ft | 336 kts | 277° |
| 2026-05-08 18:24 | 12.34923 | -81.29155 | 10524 ft | 335 kts | 277° |
| 2026-05-08 18:24 | 12.35184 | -81.31508 | 10337 ft | 329 kts | 277° |
| 2026-05-08 18:24 | 12.35439 | -81.33803 | 10183 ft | 321 kts | 277° |
| 2026-05-08 18:24 | 12.35688 | -81.36044 | 10043 ft | 314 kts | 277° |
| 2026-05-08 18:25 | 12.35932 | -81.38247 | 9774 ft | 310 kts | 277° |
| 2026-05-08 18:25 | 12.36173 | -81.40416 | 9469 ft | 303 kts | 277° |
| 2026-05-08 18:25 | 12.36408 | -81.42540 | 9173 ft | 298 kts | 277° |
| 2026-05-08 18:25 | 12.36641 | -81.44640 | 8899 ft | 297 kts | 277° |
| 2026-05-08 18:26 | 12.36873 | -81.46733 | 8613 ft | 295 kts | 277° |
| 2026-05-08 18:26 | 12.37101 | -81.48789 | 8336 ft | 294 kts | 277° |
| 2026-05-08 18:26 | 12.37330 | -81.50867 | 8061 ft | 293 kts | 277° |
| 2026-05-08 18:26 | 12.37559 | -81.52935 | 7779 ft | 292 kts | 277° |
| 2026-05-08 18:27 | 12.37787 | -81.55001 | 7501 ft | 292 kts | 277° |
| 2026-05-08 18:27 | 12.37938 | -81.56365 | 7328 ft | 291 kts | 277° |
| 2026-05-08 18:27 | 12.38241 | -81.59118 | 6951 ft | 291 kts | 277° |
| 2026-05-08 18:27 | 12.38468 | -81.61173 | 6675 ft | 290 kts | 277° |
| 2026-05-08 18:28 | 12.38693 | -81.63221 | 6399 ft | 289 kts | 277° |
| 2026-05-08 18:28 | 12.38918 | -81.65262 | 6101 ft | 289 kts | 277° |
| 2026-05-08 18:28 | 12.39143 | -81.67308 | 5785 ft | 289 kts | 277° |
| 2026-05-08 18:28 | 12.39367 | -81.69349 | 5486 ft | 288 kts | 277° |
| 2026-05-08 18:29 | 12.39589 | -81.71375 | 5235 ft | 284 kts | 277° |
| 2026-05-08 18:29 | 12.39803 | -81.73325 | 4984 ft | 275 kts | 277° |
| 2026-05-08 18:29 | 12.40012 | -81.75238 | 4735 ft | 265 kts | 277° |
| 2026-05-08 18:29 | 12.40213 | -81.77071 | 4467 ft | 255 kts | 277° |
| 2026-05-08 18:30 | 12.40407 | -81.78842 | 4206 ft | 246 kts | 277° |
| 2026-05-08 18:30 | 12.40626 | -81.80537 | 4033 ft | 233 kts | 286° |
| 2026-05-08 18:30 | 12.41423 | -81.81914 | 3887 ft | 224 kts | 320° |
| 2026-05-08 18:30 | 12.42667 | -81.82846 | 3754 ft | 221 kts | 333° |
| 2026-05-08 18:31 | 12.44006 | -81.83632 | 3610 ft | 223 kts | 334° |
| 2026-05-08 18:31 | 12.45360 | -81.84417 | 3439 ft | 224 kts | 334° |
| 2026-05-08 18:31 | 12.46694 | -81.85199 | 3256 ft | 216 kts | 334° |
| 2026-05-08 18:31 | 12.48009 | -81.85846 | 3070 ft | 202 kts | 353° |
| 2026-05-08 18:32 | 12.49315 | -81.85698 | 2902 ft | 185 kts | 28° |
| 2026-05-08 18:32 | 12.50334 | -81.84964 | 2720 ft | 178 kts | 51° |
| 2026-05-08 18:32 | 12.51032 | -81.83926 | 2521 ft | 177 kts | 60° |
| 2026-05-08 18:32 | 12.51651 | -81.82854 | 2337 ft | 169 kts | 61° |
| 2026-05-08 18:33 | 12.52218 | -81.81862 | 2111 ft | 158 kts | 61° |
| 2026-05-08 18:33 | 12.52768 | -81.80899 | 1955 ft | 156 kts | 61° |
| 2026-05-08 18:33 | 12.53317 | -81.79942 | 1774 ft | 156 kts | 62° |
| 2026-05-08 18:33 | 12.53861 | -81.78990 | 1584 ft | 155 kts | 62° |
| 2026-05-08 18:34 | 12.54405 | -81.78040 | 1375 ft | 154 kts | 61° |
| 2026-05-08 18:34 | 12.54943 | -81.77103 | 1202 ft | 149 kts | 62° |
| 2026-05-08 18:34 | 12.55458 | -81.76207 | 984 ft | 143 kts | 61° |
| 2026-05-08 18:34 | 12.55952 | -81.75347 | 794 ft | 138 kts | 60° |
| 2026-05-08 18:35 | 12.56441 | -81.74503 | 577 ft | 137 kts | 62° |
| 2026-05-08 18:35 | 12.56916 | -81.73649 | 390 ft | 141 kts | 62° |
| 2026-05-08 18:35 | 12.57404 | -81.72788 | 239 ft | 141 kts | 59° |
| 2026-05-08 18:35 | 12.57912 | -81.71903 | 59 ft | 147 kts | 60° |
| 2026-05-08 18:36 | 12.58389 | -81.71072 | 31 ft | 111 kts | 59° |
| 2026-05-08 18:36 | 12.58672 | -81.70580 | 20 ft | 49 kts | 59° |
| 2026-05-08 18:36 | 12.58733 | -81.70437 | 17 ft | 11 kts | 104° |
| 2026-05-08 18:36 | 12.58712 | -81.70381 | 16 ft | 6 kts | 114° |
| 2026-05-08 18:37 | 12.58708 | -81.70344 | 14 ft | 4 kts | 71° |
| 2026-05-08 18:37 | 12.58721 | -81.70319 | 14 ft | 4 kts | 61° |
| 2026-05-08 18:37 | 12.58717 | -81.70295 | 14 ft | 4 kts | 135° |
| 2026-05-08 18:37 | 12.58694 | -81.70282 | 14 ft | 4 kts | 150° |
| 2026-05-08 18:38 | 12.58673 | -81.70270 | 14 ft | 1 kts | 150° |